LQSA Airport Information

Runway Information
Runway 12 Length 8666 ft width 150 ft
Elevation 1643 ft Threshold 333 ft Heading 117
Runway 30 Length 8666 ft Width 150 ft
Elevation 1690 ft Threshold 1666 ft Heading 297
Airport Frequencies
Type APP Name APP Frequency 136.45 MHZ
Type GCA Name GCA Frequency 119.4 MHZ
Type GND Name GND Frequency 121.9 MHZ
Type TWR Name TWR Frequency 118.25 MHZ
Airport Navaids
Type NDB Name Sarajevo Frequency 436 KHZ
Type VOR-DME Name Sarajevo Frequency 116700 KHZ
Type NDB Name Kobiljaca Frequency 358 KHZ
Type VORTAC Name Sarajevo Frequency 108850 KHZ
Airport Weather Information & NOTAM
ADDS - METARS form results

(1119 UTC 17 July 2018)
 
METAR text: LQSA 171100Z 33006KT 280V040 9999 FEW040TCU 24/15 Q1011 NOSIG
Conditions at: LQSA (SARAJEVO/BUTMIR , CS) observed 1100 UTC 17 July 2018
Temperature: 24.0°C (75°F)
Dewpoint: 15.0°C (59°F) [RH = 57%]
Pressure (altimeter): 29.85 inches Hg (1011.0 mb)
Winds: from the NNW (330 degrees) at 7 MPH (6 knots; 3.1 m/s)
Visibility: 6 or more miles (10+ km)
Ceiling: at least 12,000 feet AGL
Clouds: few clouds at 4000 feet AGL
Weather: no significant weather observed at this time

METAR text: LQSA 171030Z VRB03KT 9999 FEW040TCU 23/15 Q1011 NOSIG
Conditions at: LQSA (SARAJEVO/BUTMIR , CS) observed 1030 UTC 17 July 2018
Temperature: 23.0°C (73°F)
Dewpoint: 15.0°C (59°F) [RH = 61%]
Pressure (altimeter): 29.85 inches Hg (1011.0 mb)
Winds: variable direction winds at 3 MPH (3 knots; 1.6 m/s)
Visibility: 6 or more miles (10+ km)
Ceiling: at least 12,000 feet AGL
Clouds: few clouds at 4000 feet AGL
Weather: no significant weather observed at this time